sensor_id;sensor_type;location;lat;lon;timestamp;P1;durP1;ratioP1;P2;durP2;ratioP2
828;SDS011;396;52.558;13.188;2022-12-18T00:00:06;39.13;;;12.00;;
828;SDS011;396;52.558;13.188;2022-12-18T00:02:34;36.53;;;12.30;;
828;SDS011;396;52.558;13.188;2022-12-18T00:05:00;29.93;;;11.30;;
828;SDS011;396;52.558;13.188;2022-12-18T00:07:27;30.30;;;12.37;;
828;SDS011;396;52.558;13.188;2022-12-18T00:09:53;30.97;;;11.50;;
828;SDS011;396;52.558;13.188;2022-12-18T00:12:20;29.13;;;10.60;;
828;SDS011;396;52.558;13.188;2022-12-18T00:14:48;39.17;;;11.10;;
828;SDS011;396;52.558;13.188;2022-12-18T00:17:14;39.47;;;11.30;;
828;SDS011;396;52.558;13.188;2022-12-18T00:19:41;36.93;;;13.50;;
828;SDS011;396;52.558;13.188;2022-12-18T00:22:08;30.53;;;10.93;;
828;SDS011;396;52.558;13.188;2022-12-18T00:24:34;30.33;;;11.30;;
828;SDS011;396;52.558;13.188;2022-12-18T00:27:01;41.33;;;12.40;;
828;SDS011;396;52.558;13.188;2022-12-18T00:29:27;30.83;;;11.40;;
828;SDS011;396;52.558;13.188;2022-12-18T00:31:55;35.50;;;12.47;;
828;SDS011;396;52.558;13.188;2022-12-18T00:34:22;29.73;;;11.43;;
828;SDS011;396;52.558;13.188;2022-12-18T00:36:48;33.27;;;11.27;;
828;SDS011;396;52.558;13.188;2022-12-18T00:39:15;30.03;;;11.13;;
828;SDS011;396;52.558;13.188;2022-12-18T00:41:42;45.20;;;12.60;;
828;SDS011;396;52.558;13.188;2022-12-18T00:44:26;46.27;;;13.40;;
828;SDS011;396;52.558;13.188;2022-12-18T00:46:52;33.57;;;12.83;;
828;SDS011;396;52.558;13.188;2022-12-18T00:49:20;31.13;;;12.47;;
828;SDS011;396;52.558;13.188;2022-12-18T00:51:47;29.90;;;12.00;;
828;SDS011;396;52.558;13.188;2022-12-18T00:54:14;34.80;;;13.50;;
828;SDS011;396;52.558;13.188;2022-12-18T00:56:41;37.40;;;13.43;;
828;SDS011;396;52.558;13.188;2022-12-18T00:59:08;30.13;;;10.90;;
828;SDS011;396;52.558;13.188;2022-12-18T01:01:34;32.60;;;12.53;;
828;SDS011;396;52.558;13.188;2022-12-18T01:04:01;31.98;;;13.05;;
828;SDS011;396;52.558;13.188;2022-12-18T01:06:30;36.30;;;12.80;;
828;SDS011;396;52.558;13.188;2022-12-18T01:08:57;38.10;;;12.50;;
828;SDS011;396;52.558;13.188;2022-12-18T01:11:23;49.97;;;13.97;;
828;SDS011;396;52.558;13.188;2022-12-18T01:13:51;37.23;;;11.67;;
828;SDS011;396;52.558;13.188;2022-12-18T01:16:18;57.53;;;14.83;;
828;SDS011;396;52.558;13.188;2022-12-18T01:18:44;32.47;;;10.67;;
828;SDS011;396;52.558;13.188;2022-12-18T01:21:12;28.10;;;12.30;;
828;SDS011;396;52.558;13.188;2022-12-18T01:23:50;36.83;;;14.57;;
828;SDS011;396;52.558;13.188;2022-12-18T01:26:18;28.35;;;10.82;;
828;SDS011;396;52.558;13.188;2022-12-18T01:28:45;37.30;;;13.47;;
828;SDS011;396;52.558;13.188;2022-12-18T01:31:15;36.40;;;13.57;;
828;SDS011;396;52.558;13.188;2022-12-18T01:33:44;43.73;;;12.60;;
828;SDS011;396;52.558;13.188;2022-12-18T01:36:17;33.30;;;12.00;;
828;SDS011;396;52.558;13.188;2022-12-18T01:38:46;46.72;;;13.88;;
828;SDS011;396;52.558;13.188;2022-12-18T01:41:14;32.27;;;12.13;;
828;SDS011;396;52.558;13.188;2022-12-18T01:43:47;25.90;;;10.70;;
828;SDS011;396;52.558;13.188;2022-12-18T01:46:16;40.73;;;12.53;;
828;SDS011;396;52.558;13.188;2022-12-18T01:48:44;34.77;;;13.03;;
828;SDS011;396;52.558;13.188;2022-12-18T01:51:13;45.90;;;13.70;;
828;SDS011;396;52.558;13.188;2022-12-18T01:53:41;41.80;;;12.80;;
828;SDS011;396;52.558;13.188;2022-12-18T01:56:13;37.63;;;12.07;;
828;SDS011;396;52.558;13.188;2022-12-18T01:58:43;37.53;;;11.90;;
828;SDS011;396;52.558;13.188;2022-12-18T02:01:16;33.47;;;10.87;;
828;SDS011;396;52.558;13.188;2022-12-18T02:03:43;51.80;;;12.60;;
828;SDS011;396;52.558;13.188;2022-12-18T02:06:12;25.70;;;10.37;;
828;SDS011;396;52.558;13.188;2022-12-18T02:08:45;45.37;;;13.70;;
828;SDS011;396;52.558;13.188;2022-12-18T02:11:23;37.63;;;13.87;;
828;SDS011;396;52.558;13.188;2022-12-18T02:14:00;31.73;;;11.00;;
828;SDS011;396;52.558;13.188;2022-12-18T02:16:38;28.23;;;10.27;;
828;SDS011;396;52.558;13.188;2022-12-18T02:19:15;29.07;;;12.77;;
828;SDS011;396;52.558;13.188;2022-12-18T02:21:55;55.80;;;15.40;;
828;SDS011;396;52.558;13.188;2022-12-18T02:24:33;34.30;;;12.15;;
828;SDS011;396;52.558;13.188;2022-12-18T02:27:06;31.53;;;12.57;;
828;SDS011;396;52.558;13.188;2022-12-18T02:29:36;52.13;;;12.37;;
828;SDS011;396;52.558;13.188;2022-12-18T02:32:08;35.90;;;10.82;;
828;SDS011;396;52.558;13.188;2022-12-18T02:34:38;45.83;;;13.47;;
828;SDS011;396;52.558;13.188;2022-12-18T02:37:07;38.37;;;12.27;;
828;SDS011;396;52.558;13.188;2022-12-18T02:39:38;32.00;;;11.70;;
828;SDS011;396;52.558;13.188;2022-12-18T02:42:09;37.63;;;12.30;;
828;SDS011;396;52.558;13.188;2022-12-18T02:44:41;29.80;;;11.77;;
828;SDS011;396;52.558;13.188;2022-12-18T02:47:09;58.67;;;13.20;;
828;SDS011;396;52.558;13.188;2022-12-18T02:49:40;41.27;;;11.33;;
828;SDS011;396;52.558;13.188;2022-12-18T02:52:16;35.55;;;10.90;;
828;SDS011;396;52.558;13.188;2022-12-18T02:54:54;26.27;;;10.50;;
828;SDS011;396;52.558;13.188;2022-12-18T02:57:30;35.37;;;10.13;;
828;SDS011;396;52.558;13.188;2022-12-18T03:00:03;39.83;;;11.50;;
828;SDS011;396;52.558;13.188;2022-12-18T03:02:34;29.10;;;10.30;;
828;SDS011;396;52.558;13.188;2022-12-18T03:05:07;22.30;;;8.67;;
828;SDS011;396;52.558;13.188;2022-12-18T03:07:42;30.47;;;11.33;;
828;SDS011;396;52.558;13.188;2022-12-18T03:10:14;28.00;;;11.30;;
828;SDS011;396;52.558;13.188;2022-12-18T03:12:47;26.07;;;9.50;;
828;SDS011;396;52.558;13.188;2022-12-18T03:15:19;32.57;;;11.83;;
828;SDS011;396;52.558;13.188;2022-12-18T03:17:50;36.83;;;13.07;;
828;SDS011;396;52.558;13.188;2022-12-18T03:20:22;46.97;;;12.37;;
828;SDS011;396;52.558;13.188;2022-12-18T03:22:52;33.43;;;11.80;;
828;SDS011;396;52.558;13.188;2022-12-18T03:25:25;31.33;;;11.70;;
828;SDS011;396;52.558;13.188;2022-12-18T03:27:56;31.67;;;9.90;;
828;SDS011;396;52.558;13.188;2022-12-18T03:30:26;23.17;;;9.30;;
828;SDS011;396;52.558;13.188;2022-12-18T03:32:58;37.63;;;11.63;;
828;SDS011;396;52.558;13.188;2022-12-18T03:35:30;27.40;;;9.80;;
828;SDS011;396;52.558;13.188;2022-12-18T03:37:59;37.00;;;11.27;;
828;SDS011;396;52.558;13.188;2022-12-18T03:40:27;26.77;;;10.23;;
828;SDS011;396;52.558;13.188;2022-12-18T03:43:03;22.90;;;9.43;;
828;SDS011;396;52.558;13.188;2022-12-18T03:45:36;33.83;;;11.10;;
828;SDS011;396;52.558;13.188;2022-12-18T03:48:08;26.83;;;9.83;;
828;SDS011;396;52.558;13.188;2022-12-18T03:50:44;31.97;;;11.53;;
828;SDS011;396;52.558;13.188;2022-12-18T03:53:18;35.23;;;13.30;;
828;SDS011;396;52.558;13.188;2022-12-18T03:55:51;43.47;;;10.00;;
828;SDS011;396;52.558;13.188;2022-12-18T03:58:21;32.03;;;10.20;;
828;SDS011;396;52.558;13.188;2022-12-18T04:00:52;26.90;;;10.33;;
828;SDS011;396;52.558;13.188;2022-12-18T04:03:21;32.63;;;11.73;;
828;SDS011;396;52.558;13.188;2022-12-18T04:05:50;25.73;;;10.35;;
828;SDS011;396;52.558;13.188;2022-12-18T04:08:19;39.27;;;9.77;;
828;SDS011;396;52.558;13.188;2022-12-18T04:10:47;36.17;;;11.63;;
828;SDS011;396;52.558;13.188;2022-12-18T04:13:22;27.37;;;9.77;;
828;SDS011;396;52.558;13.188;2022-12-18T04:15:49;26.07;;;9.00;;
828;SDS011;396;52.558;13.188;2022-12-18T04:18:16;27.50;;;10.07;;
828;SDS011;396;52.558;13.188;2022-12-18T04:20:43;37.93;;;10.67;;
828;SDS011;396;52.558;13.188;2022-12-18T04:23:09;46.83;;;13.40;;
828;SDS011;396;52.558;13.188;2022-12-18T04:25:36;41.43;;;14.07;;
828;SDS011;396;52.558;13.188;2022-12-18T04:28:03;29.47;;;10.13;;
828;SDS011;396;52.558;13.188;2022-12-18T04:30:31;34.47;;;11.37;;
828;SDS011;396;52.558;13.188;2022-12-18T04:32:58;30.67;;;11.00;;
828;SDS011;396;52.558;13.188;2022-12-18T04:35:25;40.07;;;13.70;;
828;SDS011;396;52.558;13.188;2022-12-18T04:37:52;32.07;;;10.03;;
828;SDS011;396;52.558;13.188;2022-12-18T04:40:18;39.60;;;12.20;;
828;SDS011;396;52.558;13.188;2022-12-18T04:42:45;40.00;;;13.63;;
828;SDS011;396;52.558;13.188;2022-12-18T04:45:12;33.20;;;12.67;;
828;SDS011;396;52.558;13.188;2022-12-18T04:47:40;41.67;;;13.47;;
828;SDS011;396;52.558;13.188;2022-12-18T04:50:07;38.97;;;13.40;;
828;SDS011;396;52.558;13.188;2022-12-18T04:52:34;38.63;;;12.53;;
828;SDS011;396;52.558;13.188;2022-12-18T04:55:01;36.73;;;11.63;;
828;SDS011;396;52.558;13.188;2022-12-18T04:57:28;48.30;;;13.40;;
828;SDS011;396;52.558;13.188;2022-12-18T04:59:54;38.60;;;11.80;;
828;SDS011;396;52.558;13.188;2022-12-18T05:02:21;30.77;;;11.63;;
828;SDS011;396;52.558;13.188;2022-12-18T05:04:49;34.40;;;13.67;;
828;SDS011;396;52.558;13.188;2022-12-18T05:07:16;33.90;;;12.30;;
828;SDS011;396;52.558;13.188;2022-12-18T05:09:42;46.07;;;12.73;;
828;SDS011;396;52.558;13.188;2022-12-18T05:12:09;32.67;;;10.67;;
828;SDS011;396;52.558;13.188;2022-12-18T05:14:36;45.20;;;13.23;;
828;SDS011;396;52.558;13.188;2022-12-18T05:17:02;39.73;;;13.80;;
828;SDS011;396;52.558;13.188;2022-12-18T05:19:29;35.83;;;12.67;;
828;SDS011;396;52.558;13.188;2022-12-18T05:21:57;44.47;;;14.27;;
828;SDS011;396;52.558;13.188;2022-12-18T05:24:24;45.37;;;16.03;;
828;SDS011;396;52.558;13.188;2022-12-18T05:26:51;41.83;;;14.57;;
828;SDS011;396;52.558;13.188;2022-12-18T05:29:17;42.07;;;13.60;;
828;SDS011;396;52.558;13.188;2022-12-18T05:31:44;51.87;;;14.53;;
828;SDS011;396;52.558;13.188;2022-12-18T05:34:11;31.00;;;12.00;;
828;SDS011;396;52.558;13.188;2022-12-18T05:36:37;45.17;;;16.30;;
828;SDS011;396;52.558;13.188;2022-12-18T05:39:05;38.60;;;14.20;;
828;SDS011;396;52.558;13.188;2022-12-18T05:41:32;45.07;;;14.40;;
828;SDS011;396;52.558;13.188;2022-12-18T05:43:59;36.97;;;12.33;;
828;SDS011;396;52.558;13.188;2022-12-18T05:46:26;42.73;;;10.50;;
828;SDS011;396;52.558;13.188;2022-12-18T05:48:53;41.70;;;14.40;;
828;SDS011;396;52.558;13.188;2022-12-18T05:51:20;36.43;;;13.40;;
828;SDS011;396;52.558;13.188;2022-12-18T05:53:47;38.67;;;12.30;;
828;SDS011;396;52.558;13.188;2022-12-18T05:56:16;46.60;;;14.80;;
828;SDS011;396;52.558;13.188;2022-12-18T05:58:45;37.47;;;13.07;;
828;SDS011;396;52.558;13.188;2022-12-18T06:01:13;41.10;;;12.57;;
828;SDS011;396;52.558;13.188;2022-12-18T06:03:41;37.93;;;14.23;;
828;SDS011;396;52.558;13.188;2022-12-18T06:06:18;49.47;;;15.23;;
828;SDS011;396;52.558;13.188;2022-12-18T06:08:46;39.20;;;13.00;;
828;SDS011;396;52.558;13.188;2022-12-18T06:11:15;44.50;;;14.87;;
828;SDS011;396;52.558;13.188;2022-12-18T06:13:45;36.43;;;12.87;;
828;SDS011;396;52.558;13.188;2022-12-18T06:16:12;39.90;;;13.10;;
828;SDS011;396;52.558;13.188;2022-12-18T06:18:39;30.07;;;12.50;;
828;SDS011;396;52.558;13.188;2022-12-18T06:21:06;35.37;;;12.07;;
828;SDS011;396;52.558;13.188;2022-12-18T06:23:32;31.60;;;12.00;;
828;SDS011;396;52.558;13.188;2022-12-18T06:26:02;37.03;;;13.37;;
828;SDS011;396;52.558;13.188;2022-12-18T06:28:31;34.13;;;11.90;;
828;SDS011;396;52.558;13.188;2022-12-18T06:30:58;48.13;;;13.60;;
828;SDS011;396;52.558;13.188;2022-12-18T06:33:26;36.93;;;12.87;;
828;SDS011;396;52.558;13.188;2022-12-18T06:35:53;32.90;;;14.10;;
828;SDS011;396;52.558;13.188;2022-12-18T06:38:20;36.33;;;13.80;;
828;SDS011;396;52.558;13.188;2022-12-18T06:40:46;45.07;;;15.57;;
828;SDS011;396;52.558;13.188;2022-12-18T06:43:13;32.93;;;13.23;;
828;SDS011;396;52.558;13.188;2022-12-18T06:45:41;32.03;;;13.20;;
828;SDS011;396;52.558;13.188;2022-12-18T06:48:08;45.63;;;13.80;;
828;SDS011;396;52.558;13.188;2022-12-18T06:50:34;34.90;;;11.83;;
828;SDS011;396;52.558;13.188;2022-12-18T06:53:01;38.07;;;11.27;;
828;SDS011;396;52.558;13.188;2022-12-18T06:55:27;31.77;;;12.70;;
828;SDS011;396;52.558;13.188;2022-12-18T06:57:54;33.43;;;10.90;;
828;SDS011;396;52.558;13.188;2022-12-18T07:00:21;36.67;;;13.53;;
828;SDS011;396;52.558;13.188;2022-12-18T07:02:49;31.92;;;12.95;;
828;SDS011;396;52.558;13.188;2022-12-18T07:05:15;32.15;;;11.70;;
828;SDS011;396;52.558;13.188;2022-12-18T07:07:42;35.22;;;11.70;;
828;SDS011;396;52.558;13.188;2022-12-18T07:10:09;30.30;;;13.70;;
828;SDS011;396;52.558;13.188;2022-12-18T07:12:35;34.40;;;12.97;;
828;SDS011;396;52.558;13.188;2022-12-18T07:15:02;38.27;;;12.97;;
828;SDS011;396;52.558;13.188;2022-12-18T07:17:30;30.93;;;12.80;;
828;SDS011;396;52.558;13.188;2022-12-18T07:19:58;34.03;;;11.43;;
828;SDS011;396;52.558;13.188;2022-12-18T07:22:24;34.38;;;12.27;;
828;SDS011;396;52.558;13.188;2022-12-18T07:24:51;33.38;;;11.43;;
828;SDS011;396;52.558;13.188;2022-12-18T07:27:18;36.55;;;11.38;;
828;SDS011;396;52.558;13.188;2022-12-18T07:29:44;30.77;;;10.88;;
828;SDS011;396;52.558;13.188;2022-12-18T07:32:11;28.27;;;11.07;;
828;SDS011;396;52.558;13.188;2022-12-18T07:34:38;32.73;;;11.87;;
828;SDS011;396;52.558;13.188;2022-12-18T07:37:06;40.00;;;12.70;;
828;SDS011;396;52.558;13.188;2022-12-18T07:39:32;28.83;;;11.00;;
828;SDS011;396;52.558;13.188;2022-12-18T07:41:59;29.70;;;11.77;;
828;SDS011;396;52.558;13.188;2022-12-18T07:44:43;30.30;;;12.60;;
828;SDS011;396;52.558;13.188;2022-12-18T07:47:10;34.20;;;12.10;;
828;SDS011;396;52.558;13.188;2022-12-18T07:49:36;35.63;;;11.60;;
828;SDS011;396;52.558;13.188;2022-12-18T07:52:03;29.20;;;11.00;;
828;SDS011;396;52.558;13.188;2022-12-18T07:54:31;30.43;;;11.80;;
828;SDS011;396;52.558;13.188;2022-12-18T07:56:57;36.17;;;11.97;;
828;SDS011;396;52.558;13.188;2022-12-18T07:59:25;39.00;;;12.70;;
828;SDS011;396;52.558;13.188;2022-12-18T08:01:52;40.73;;;14.20;;
828;SDS011;396;52.558;13.188;2022-12-18T08:04:18;35.93;;;11.73;;
828;SDS011;396;52.558;13.188;2022-12-18T08:06:45;46.13;;;13.07;;
828;SDS011;396;52.558;13.188;2022-12-18T08:09:12;40.87;;;13.97;;
828;SDS011;396;52.558;13.188;2022-12-18T08:11:40;32.97;;;13.20;;
828;SDS011;396;52.558;13.188;2022-12-18T08:14:07;33.80;;;13.70;;
828;SDS011;396;52.558;13.188;2022-12-18T08:16:33;56.80;;;14.73;;
828;SDS011;396;52.558;13.188;2022-12-18T08:19:00;47.10;;;15.20;;
828;SDS011;396;52.558;13.188;2022-12-18T08:21:27;49.60;;;17.33;;
828;SDS011;396;52.558;13.188;2022-12-18T08:23:56;45.90;;;13.77;;
828;SDS011;396;52.558;13.188;2022-12-18T08:26:24;51.23;;;15.07;;
828;SDS011;396;52.558;13.188;2022-12-18T08:28:54;51.63;;;14.93;;
828;SDS011;396;52.558;13.188;2022-12-18T08:31:22;45.37;;;16.80;;
828;SDS011;396;52.558;13.188;2022-12-18T08:33:49;39.30;;;14.37;;
828;SDS011;396;52.558;13.188;2022-12-18T08:36:16;54.83;;;17.87;;
828;SDS011;396;52.558;13.188;2022-12-18T08:38:43;39.43;;;14.30;;
828;SDS011;396;52.558;13.188;2022-12-18T08:41:12;43.40;;;15.60;;
828;SDS011;396;52.558;13.188;2022-12-18T08:43:40;48.37;;;15.03;;
828;SDS011;396;52.558;13.188;2022-12-18T08:46:26;34.63;;;13.63;;
828;SDS011;396;52.558;13.188;2022-12-18T08:48:56;44.03;;;15.63;;
828;SDS011;396;52.558;13.188;2022-12-18T08:51:23;41.97;;;12.70;;
828;SDS011;396;52.558;13.188;2022-12-18T08:53:50;34.40;;;13.80;;
828;SDS011;396;52.558;13.188;2022-12-18T08:56:16;45.23;;;14.30;;
828;SDS011;396;52.558;13.188;2022-12-18T08:58:43;37.40;;;12.87;;
828;SDS011;396;52.558;13.188;2022-12-18T09:01:10;39.10;;;14.87;;
828;SDS011;396;52.558;13.188;2022-12-18T09:03:39;28.00;;;11.73;;
828;SDS011;396;52.558;13.188;2022-12-18T09:06:07;34.60;;;11.97;;
828;SDS011;396;52.558;13.188;2022-12-18T09:08:34;51.67;;;16.47;;
828;SDS011;396;52.558;13.188;2022-12-18T09:11:01;33.40;;;10.80;;
828;SDS011;396;52.558;13.188;2022-12-18T09:13:28;46.63;;;12.80;;
828;SDS011;396;52.558;13.188;2022-12-18T09:15:55;28.53;;;10.53;;
828;SDS011;396;52.558;13.188;2022-12-18T09:18:22;25.57;;;10.57;;
828;SDS011;396;52.558;13.188;2022-12-18T09:20:51;27.27;;;11.40;;
828;SDS011;396;52.558;13.188;2022-12-18T09:23:18;34.37;;;12.40;;
828;SDS011;396;52.558;13.188;2022-12-18T09:25:45;20.57;;;8.57;;
828;SDS011;396;52.558;13.188;2022-12-18T09:28:12;25.90;;;10.60;;
828;SDS011;396;52.558;13.188;2022-12-18T09:30:40;28.13;;;10.40;;
828;SDS011;396;52.558;13.188;2022-12-18T09:33:09;31.63;;;11.80;;
828;SDS011;396;52.558;13.188;2022-12-18T09:35:39;36.70;;;12.40;;
828;SDS011;396;52.558;13.188;2022-12-18T09:38:08;32.37;;;13.83;;
828;SDS011;396;52.558;13.188;2022-12-18T09:40:40;29.33;;;11.97;;
828;SDS011;396;52.558;13.188;2022-12-18T09:43:12;29.60;;;12.00;;
828;SDS011;396;52.558;13.188;2022-12-18T09:45:43;30.17;;;10.97;;
828;SDS011;396;52.558;13.188;2022-12-18T09:48:15;27.30;;;12.07;;
828;SDS011;396;52.558;13.188;2022-12-18T09:50:47;28.63;;;11.60;;
828;SDS011;396;52.558;13.188;2022-12-18T09:53:19;37.93;;;10.07;;
828;SDS011;396;52.558;13.188;2022-12-18T09:55:51;35.37;;;12.40;;
828;SDS011;396;52.558;13.188;2022-12-18T09:58:20;33.33;;;12.10;;
828;SDS011;396;52.558;13.188;2022-12-18T10:00:54;27.30;;;11.13;;
828;SDS011;396;52.558;13.188;2022-12-18T10:03:21;30.60;;;11.70;;
828;SDS011;396;52.558;13.188;2022-12-18T10:05:51;32.30;;;12.60;;
828;SDS011;396;52.558;13.188;2022-12-18T10:08:32;37.83;;;13.93;;
828;SDS011;396;52.558;13.188;2022-12-18T10:11:12;31.20;;;10.20;;
828;SDS011;396;52.558;13.188;2022-12-18T10:13:53;35.50;;;11.37;;
828;SDS011;396;52.558;13.188;2022-12-18T10:16:27;28.17;;;11.37;;
828;SDS011;396;52.558;13.188;2022-12-18T10:19:04;35.20;;;11.93;;
828;SDS011;396;52.558;13.188;2022-12-18T10:21:45;29.30;;;12.50;;
828;SDS011;396;52.558;13.188;2022-12-18T10:24:20;35.50;;;12.13;;
828;SDS011;396;52.558;13.188;2022-12-18T10:26:54;26.43;;;12.07;;
828;SDS011;396;52.558;13.188;2022-12-18T10:29:26;37.47;;;12.90;;
828;SDS011;396;52.558;13.188;2022-12-18T10:31:53;37.50;;;12.30;;
828;SDS011;396;52.558;13.188;2022-12-18T10:34:20;43.17;;;13.40;;
828;SDS011;396;52.558;13.188;2022-12-18T10:36:47;42.37;;;11.87;;
828;SDS011;396;52.558;13.188;2022-12-18T10:39:14;34.60;;;12.70;;
828;SDS011;396;52.558;13.188;2022-12-18T10:41:43;30.97;;;12.20;;
828;SDS011;396;52.558;13.188;2022-12-18T10:44:11;27.47;;;12.50;;
828;SDS011;396;52.558;13.188;2022-12-18T10:46:42;32.87;;;10.90;;
828;SDS011;396;52.558;13.188;2022-12-18T10:49:18;31.30;;;12.23;;
828;SDS011;396;52.558;13.188;2022-12-18T10:51:48;33.97;;;12.03;;
828;SDS011;396;52.558;13.188;2022-12-18T10:54:15;32.97;;;11.23;;
828;SDS011;396;52.558;13.188;2022-12-18T10:56:45;30.40;;;12.10;;
828;SDS011;396;52.558;13.188;2022-12-18T10:59:13;30.27;;;10.87;;
828;SDS011;396;52.558;13.188;2022-12-18T11:01:48;37.57;;;12.30;;
828;SDS011;396;52.558;13.188;2022-12-18T11:04:18;26.90;;;11.43;;
828;SDS011;396;52.558;13.188;2022-12-18T11:06:54;30.63;;;10.07;;
828;SDS011;396;52.558;13.188;2022-12-18T11:09:23;27.03;;;10.90;;
828;SDS011;396;52.558;13.188;2022-12-18T11:11:53;24.90;;;9.97;;
828;SDS011;396;52.558;13.188;2022-12-18T11:14:22;29.00;;;10.60;;
828;SDS011;396;52.558;13.188;2022-12-18T11:16:50;28.20;;;10.80;;
828;SDS011;396;52.558;13.188;2022-12-18T11:19:28;29.03;;;10.87;;
828;SDS011;396;52.558;13.188;2022-12-18T11:21:58;30.20;;;10.00;;
828;SDS011;396;52.558;13.188;2022-12-18T11:24:27;25.23;;;9.10;;
828;SDS011;396;52.558;13.188;2022-12-18T11:26:59;34.73;;;11.60;;
828;SDS011;396;52.558;13.188;2022-12-18T11:29:34;25.53;;;10.93;;
828;SDS011;396;52.558;13.188;2022-12-18T11:32:14;31.13;;;10.93;;
828;SDS011;396;52.558;13.188;2022-12-18T11:34:51;31.07;;;9.80;;
828;SDS011;396;52.558;13.188;2022-12-18T11:37:23;25.73;;;9.53;;
828;SDS011;396;52.558;13.188;2022-12-18T11:39:51;27.83;;;9.10;;
828;SDS011;396;52.558;13.188;2022-12-18T11:42:24;29.10;;;10.30;;
828;SDS011;396;52.558;13.188;2022-12-18T11:44:58;23.77;;;9.97;;
828;SDS011;396;52.558;13.188;2022-12-18T11:47:28;28.07;;;11.70;;
828;SDS011;396;52.558;13.188;2022-12-18T11:50:09;48.30;;;12.13;;
828;SDS011;396;52.558;13.188;2022-12-18T11:52:40;30.43;;;10.70;;
828;SDS011;396;52.558;13.188;2022-12-18T11:55:10;24.37;;;9.57;;
828;SDS011;396;52.558;13.188;2022-12-18T11:57:42;30.73;;;10.87;;
828;SDS011;396;52.558;13.188;2022-12-18T12:00:18;32.67;;;10.70;;
828;SDS011;396;52.558;13.188;2022-12-18T12:02:56;30.77;;;10.03;;
828;SDS011;396;52.558;13.188;2022-12-18T12:05:47;33.37;;;11.20;;
828;SDS011;396;52.558;13.188;2022-12-18T12:08:26;22.33;;;10.10;;
828;SDS011;396;52.558;13.188;2022-12-18T12:11:04;25.77;;;10.50;;
828;SDS011;396;52.558;13.188;2022-12-18T12:13:40;19.87;;;8.90;;
828;SDS011;396;52.558;13.188;2022-12-18T12:16:15;22.80;;;8.90;;
828;SDS011;396;52.558;13.188;2022-12-18T12:18:53;32.03;;;11.57;;
828;SDS011;396;52.558;13.188;2022-12-18T12:21:28;31.90;;;10.73;;
828;SDS011;396;52.558;13.188;2022-12-18T12:24:03;29.70;;;9.07;;
828;SDS011;396;52.558;13.188;2022-12-18T12:26:43;31.40;;;10.93;;
828;SDS011;396;52.558;13.188;2022-12-18T12:29:21;23.70;;;9.87;;
828;SDS011;396;52.558;13.188;2022-12-18T12:32:02;27.30;;;9.83;;
828;SDS011;396;52.558;13.188;2022-12-18T12:34:41;19.70;;;8.30;;
828;SDS011;396;52.558;13.188;2022-12-18T12:37:19;30.93;;;11.17;;
828;SDS011;396;52.558;13.188;2022-12-18T12:39:56;28.37;;;10.30;;
828;SDS011;396;52.558;13.188;2022-12-18T12:42:27;33.70;;;10.90;;
828;SDS011;396;52.558;13.188;2022-12-18T12:45:33;27.00;;;11.40;;
828;SDS011;396;52.558;13.188;2022-12-18T12:48:02;28.13;;;10.40;;
828;SDS011;396;52.558;13.188;2022-12-18T12:50:33;26.33;;;9.67;;
828;SDS011;396;52.558;13.188;2022-12-18T12:53:01;34.37;;;12.03;;
828;SDS011;396;52.558;13.188;2022-12-18T12:55:33;29.10;;;9.70;;
828;SDS011;396;52.558;13.188;2022-12-18T12:58:02;31.00;;;10.10;;
828;SDS011;396;52.558;13.188;2022-12-18T13:00:39;26.20;;;10.13;;
828;SDS011;396;52.558;13.188;2022-12-18T13:03:12;22.80;;;8.67;;
828;SDS011;396;52.558;13.188;2022-12-18T13:05:48;26.13;;;9.13;;
828;SDS011;396;52.558;13.188;2022-12-18T13:08:23;20.93;;;8.00;;
828;SDS011;396;52.558;13.188;2022-12-18T13:10:51;17.07;;;8.20;;
828;SDS011;396;52.558;13.188;2022-12-18T13:13:47;21.70;;;8.07;;
828;SDS011;396;52.558;13.188;2022-12-18T13:16:16;27.83;;;8.30;;
828;SDS011;396;52.558;13.188;2022-12-18T13:18:48;23.63;;;9.10;;
828;SDS011;396;52.558;13.188;2022-12-18T13:21:18;28.47;;;10.23;;
828;SDS011;396;52.558;13.188;2022-12-18T13:23:50;23.23;;;9.43;;
828;SDS011;396;52.558;13.188;2022-12-18T13:26:32;26.67;;;9.97;;
828;SDS011;396;52.558;13.188;2022-12-18T13:29:01;27.43;;;11.03;;
828;SDS011;396;52.558;13.188;2022-12-18T13:34:27;25.60;;;10.47;;
828;SDS011;396;52.558;13.188;2022-12-18T13:36:56;24.77;;;9.37;;
828;SDS011;396;52.558;13.188;2022-12-18T13:39:43;22.33;;;8.53;;
828;SDS011;396;52.558;13.188;2022-12-18T13:45:41;27.60;;;9.60;;
828;SDS011;396;52.558;13.188;2022-12-18T13:48:19;21.50;;;7.83;;
828;SDS011;396;52.558;13.188;2022-12-18T13:50:52;21.50;;;9.47;;
828;SDS011;396;52.558;13.188;2022-12-18T13:53:26;23.97;;;9.57;;
828;SDS011;396;52.558;13.188;2022-12-18T13:55:55;21.47;;;9.57;;
828;SDS011;396;52.558;13.188;2022-12-18T13:58:22;23.53;;;9.53;;
828;SDS011;396;52.558;13.188;2022-12-18T14:00:49;22.17;;;8.77;;
828;SDS011;396;52.558;13.188;2022-12-18T14:03:19;39.83;;;10.67;;
828;SDS011;396;52.558;13.188;2022-12-18T14:05:52;22.87;;;9.07;;
828;SDS011;396;52.558;13.188;2022-12-18T14:08:21;21.40;;;9.63;;
828;SDS011;396;52.558;13.188;2022-12-18T14:10:48;26.17;;;9.00;;
828;SDS011;396;52.558;13.188;2022-12-18T14:13:19;26.23;;;9.80;;
828;SDS011;396;52.558;13.188;2022-12-18T14:15:50;23.17;;;9.70;;
828;SDS011;396;52.558;13.188;2022-12-18T14:18:21;20.10;;;8.60;;
828;SDS011;396;52.558;13.188;2022-12-18T14:20:50;27.20;;;9.70;;
828;SDS011;396;52.558;13.188;2022-12-18T14:23:28;25.63;;;8.53;;
828;SDS011;396;52.558;13.188;2022-12-18T14:25:57;22.13;;;9.10;;
828;SDS011;396;52.558;13.188;2022-12-18T14:28:24;33.53;;;11.23;;
828;SDS011;396;52.558;13.188;2022-12-18T14:30:52;27.50;;;10.03;;
828;SDS011;396;52.558;13.188;2022-12-18T14:33:21;29.30;;;10.87;;
828;SDS011;396;52.558;13.188;2022-12-18T14:35:53;27.57;;;11.80;;
828;SDS011;396;52.558;13.188;2022-12-18T14:38:24;26.77;;;11.50;;
828;SDS011;396;52.558;13.188;2022-12-18T14:40:53;27.30;;;11.60;;
828;SDS011;396;52.558;13.188;2022-12-18T14:43:20;33.93;;;11.57;;
828;SDS011;396;52.558;13.188;2022-12-18T14:45:47;32.43;;;11.73;;
828;SDS011;396;52.558;13.188;2022-12-18T14:48:15;27.17;;;11.00;;
828;SDS011;396;52.558;13.188;2022-12-18T14:50:45;29.17;;;13.87;;
828;SDS011;396;52.558;13.188;2022-12-18T14:53:22;36.03;;;12.87;;
828;SDS011;396;52.558;13.188;2022-12-18T14:55:54;33.37;;;14.40;;
828;SDS011;396;52.558;13.188;2022-12-18T14:58:21;37.50;;;12.90;;
828;SDS011;396;52.558;13.188;2022-12-18T15:00:48;36.77;;;12.90;;
828;SDS011;396;52.558;13.188;2022-12-18T15:03:16;36.23;;;12.50;;
828;SDS011;396;52.558;13.188;2022-12-18T15:05:46;32.47;;;13.20;;
828;SDS011;396;52.558;13.188;2022-12-18T15:08:24;40.77;;;15.57;;
828;SDS011;396;52.558;13.188;2022-12-18T15:10:55;35.83;;;14.20;;
828;SDS011;396;52.558;13.188;2022-12-18T15:13:22;43.50;;;14.73;;
828;SDS011;396;52.558;13.188;2022-12-18T15:15:50;49.87;;;16.60;;
828;SDS011;396;52.558;13.188;2022-12-18T15:18:19;33.87;;;13.23;;
828;SDS011;396;52.558;13.188;2022-12-18T15:20:49;32.40;;;13.23;;
828;SDS011;396;52.558;13.188;2022-12-18T15:23:18;34.70;;;13.70;;
828;SDS011;396;52.558;13.188;2022-12-18T15:25:47;43.67;;;15.53;;